createdAt,value
2023-07-24T00:01:51.550Z,3.92
2023-07-24T00:04:20.286Z,3.33
2023-07-24T00:06:49.088Z,3.60
2023-07-24T00:09:17.997Z,3.65
2023-07-24T00:11:46.800Z,5.35
2023-07-24T00:14:15.589Z,4.18
2023-07-24T00:16:44.577Z,4.82
2023-07-24T00:19:14.783Z,5.10
2023-07-24T00:21:45.995Z,5.68
2023-07-24T00:24:14.713Z,3.47
2023-07-24T00:26:43.437Z,7.10
2023-07-24T00:29:12.290Z,6.00
2023-07-24T00:31:41.120Z,3.78
2023-07-24T00:34:13.165Z,4.40
2023-07-24T00:36:42.677Z,5.30
2023-07-24T00:39:11.481Z,3.45
2023-07-24T00:41:43.695Z,6.15
2023-07-24T00:44:12.549Z,3.85
2023-07-24T00:46:42.332Z,5.93
2023-07-24T00:49:13.210Z,3.60
2023-07-24T00:51:42.723Z,4.97
2023-07-24T00:54:11.603Z,4.78
2023-07-24T00:56:40.718Z,5.15
2023-07-24T00:59:10.897Z,3.67
2023-07-24T01:01:42.372Z,5.03
2023-07-24T01:04:11.456Z,6.10
2023-07-24T01:06:42.129Z,5.50
2023-07-24T01:09:11.788Z,3.85
2023-07-24T01:11:48.625Z,5.88
2023-07-24T01:14:28.519Z,4.70
2023-07-24T01:17:01.232Z,3.85
2023-07-24T01:19:39.950Z,5.25
2023-07-24T01:22:23.277Z,5.07
2023-07-24T01:25:19.379Z,6.00
2023-07-24T01:27:51.579Z,4.40
2023-07-24T01:30:22.435Z,3.80
2023-07-24T01:32:51.872Z,4.35
2023-07-24T01:35:21.040Z,4.45
2023-07-24T01:37:51.171Z,5.07
2023-07-24T01:40:22.374Z,4.50
2023-07-24T01:42:53.282Z,5.13
2023-07-24T01:45:34.531Z,4.80
2023-07-24T01:48:03.388Z,7.10
2023-07-24T01:50:32.266Z,4.35
2023-07-24T01:53:01.398Z,4.10
2023-07-24T01:55:30.229Z,3.45
2023-07-24T01:58:00.513Z,5.07
2023-07-24T02:00:29.584Z,4.93
2023-07-24T02:03:01.421Z,5.28
2023-07-24T02:05:33.540Z,4.75
2023-07-24T02:08:02.567Z,4.18
2023-07-24T02:10:31.410Z,5.72
2023-07-24T02:13:01.712Z,4.50
2023-07-24T02:15:30.588Z,4.20
2023-07-24T02:17:59.364Z,4.05
2023-07-24T02:20:28.230Z,4.70
2023-07-24T02:22:58.417Z,6.90
2023-07-24T02:25:28.393Z,6.03
2023-07-24T02:27:57.115Z,5.53
2023-07-24T02:30:27.732Z,4.75
2023-07-24T02:32:58.422Z,5.60
2023-07-24T02:35:27.527Z,5.00
2023-07-24T02:37:56.292Z,5.90
2023-07-24T02:40:25.208Z,4.70
2023-07-24T02:42:54.030Z,5.75
2023-07-24T02:45:22.772Z,5.45
2023-07-24T02:47:54.259Z,5.75
2023-07-24T02:50:23.137Z,4.70
2023-07-24T02:52:51.891Z,5.47
2023-07-24T02:55:20.773Z,5.43
2023-07-24T02:57:49.581Z,6.43
2023-07-24T03:00:20.815Z,4.45
2023-07-24T03:02:53.414Z,4.50
2023-07-24T03:05:23.376Z,4.55
2023-07-24T03:07:52.147Z,6.65
2023-07-24T03:10:22.809Z,3.92
2023-07-24T03:12:51.760Z,5.80
2023-07-24T03:15:21.145Z,4.50
2023-07-24T03:17:50.039Z,4.03
2023-07-24T03:20:22.636Z,4.03
2023-07-24T03:22:51.729Z,4.32
2023-07-24T03:25:20.476Z,5.85
2023-07-24T03:28:01.544Z,4.35
2023-07-24T03:30:30.414Z,7.88
2023-07-24T03:33:00.163Z,4.95
2023-07-24T03:35:30.391Z,5.60
2023-07-24T03:37:59.394Z,3.42
2023-07-24T03:40:28.604Z,5.63
2023-07-24T03:42:57.561Z,7.13
2023-07-24T03:45:26.361Z,6.05
2023-07-24T03:47:55.214Z,6.25
2023-07-24T03:50:26.189Z,5.25
2023-07-24T03:52:56.381Z,6.30
2023-07-24T03:55:25.193Z,4.45
2023-07-24T03:57:54.179Z,7.13
2023-07-24T04:00:23.109Z,6.18
2023-07-24T04:02:51.949Z,5.22
2023-07-24T04:05:21.699Z,5.95
2023-07-24T04:07:51.262Z,4.57
2023-07-24T04:10:21.709Z,4.78
2023-07-24T04:12:50.489Z,5.50
2023-07-24T04:15:51.626Z,6.47
2023-07-24T04:18:20.409Z,5.32
2023-07-24T04:20:54.556Z,4.80
2023-07-24T04:23:23.323Z,6.72
2023-07-24T04:25:53.993Z,5.35
2023-07-24T04:28:23.231Z,8.45
2023-07-24T04:30:53.631Z,5.10
2023-07-24T04:33:28.269Z,6.90
2023-07-24T04:36:01.232Z,6.43
2023-07-24T04:39:05.590Z,6.10
2023-07-24T04:41:35.949Z,5.93
2023-07-24T04:44:05.363Z,6.95
2023-07-24T04:46:34.477Z,5.95
2023-07-24T04:49:34.180Z,4.97
2023-07-24T04:53:18.906Z,6.50
2023-07-24T04:55:48.758Z,5.07
2023-07-24T04:58:19.146Z,7.28
2023-07-24T05:00:47.929Z,5.82
2023-07-24T05:03:18.546Z,5.55
2023-07-24T05:05:52.002Z,7.35
2023-07-24T05:09:42.565Z,5.15
2023-07-24T05:12:11.400Z,5.68
2023-07-24T05:14:41.747Z,7.53
2023-07-24T05:17:10.542Z,10.70
2023-07-24T05:19:39.342Z,6.30
2023-07-24T05:22:08.931Z,7.88
2023-07-24T05:24:37.889Z,9.70
2023-07-24T05:27:07.452Z,4.43
2023-07-24T05:29:36.389Z,6.55
2023-07-24T05:33:20.905Z,7.25
2023-07-24T05:36:17.195Z,6.30
2023-07-24T05:38:51.126Z,8.73
2023-07-24T05:41:20.072Z,6.75
2023-07-24T05:43:48.947Z,7.75
2023-07-24T05:46:17.816Z,5.88
2023-07-24T05:48:46.642Z,7.32
2023-07-24T05:51:46.956Z,6.90
2023-07-24T05:54:16.804Z,5.13
2023-07-24T05:56:45.872Z,6.75
2023-07-24T05:59:15.420Z,7.28
2023-07-24T06:01:44.344Z,7.88
2023-07-24T06:04:13.262Z,7.75
2023-07-24T06:06:43.218Z,7.50
2023-07-24T06:09:13.680Z,5.38
2023-07-24T06:11:42.665Z,9.10
2023-07-24T06:14:11.542Z,5.07
2023-07-24T06:16:40.802Z,6.15
2023-07-24T06:19:16.317Z,5.07
2023-07-24T06:21:45.174Z,5.25
2023-07-24T06:24:15.558Z,6.00
2023-07-24T06:26:44.494Z,5.47
2023-07-24T06:29:13.344Z,5.32
2023-07-24T06:31:42.153Z,5.80
2023-07-24T06:34:11.081Z,7.30
2023-07-24T06:36:39.978Z,5.88
2023-07-24T06:39:08.656Z,6.40
2023-07-24T06:41:38.906Z,5.15
2023-07-24T06:44:08.391Z,5.38
2023-07-24T06:46:37.262Z,5.82
2023-07-24T06:49:06.177Z,6.00
2023-07-24T06:51:35.072Z,6.97
2023-07-24T06:54:05.857Z,7.85
2023-07-24T06:56:35.042Z,6.18
2023-07-24T06:59:05.395Z,7.40
2023-07-24T07:01:34.373Z,6.18
2023-07-24T07:04:30.813Z,6.20
2023-07-24T07:07:02.670Z,5.75
2023-07-24T07:09:31.998Z,5.03
2023-07-24T07:12:02.450Z,6.43
2023-07-24T07:14:32.734Z,5.55
2023-07-24T07:17:01.774Z,5.65
2023-07-24T07:19:30.990Z,5.95
2023-07-24T07:21:59.665Z,6.13
2023-07-24T07:24:32.446Z,6.88
2023-07-24T07:27:01.454Z,5.93
2023-07-24T07:29:32.599Z,5.20
2023-07-24T07:32:01.839Z,4.93
2023-07-24T07:34:33.664Z,5.25
2023-07-24T07:37:02.618Z,5.22
2023-07-24T07:39:32.125Z,5.07
2023-07-24T07:42:12.330Z,7.32
2023-07-24T07:44:48.438Z,5.25
2023-07-24T07:47:17.666Z,6.47
2023-07-24T07:49:46.476Z,5.65
2023-07-24T07:52:18.265Z,5.13
2023-07-24T07:54:49.900Z,4.70
2023-07-24T07:57:18.980Z,5.38
2023-07-24T07:59:49.200Z,5.53
2023-07-24T08:02:18.076Z,5.68
2023-07-24T08:04:52.378Z,7.40
2023-07-24T08:07:21.318Z,4.80
2023-07-24T08:09:50.157Z,5.68
2023-07-24T08:12:19.014Z,6.57
2023-07-24T08:14:49.228Z,6.22
2023-07-24T08:17:18.501Z,6.70
2023-07-24T08:19:47.807Z,6.55
2023-07-24T08:22:16.620Z,6.53
2023-07-24T08:24:46.189Z,7.63
2023-07-24T08:27:15.433Z,7.20
2023-07-24T08:29:44.519Z,8.85
2023-07-24T08:32:15.206Z,7.38
2023-07-24T08:34:44.243Z,8.48
2023-07-24T08:37:14.627Z,8.65
2023-07-24T08:39:43.533Z,8.10
2023-07-24T08:42:14.168Z,7.93
2023-07-24T08:44:45.497Z,7.20
2023-07-24T08:47:18.109Z,8.55
2023-07-24T08:49:49.540Z,9.70
2023-07-24T08:52:34.512Z,9.35
2023-07-24T08:55:07.694Z,8.90
2023-07-24T08:57:36.852Z,10.57
2023-07-24T09:00:07.312Z,9.82
2023-07-24T09:02:38.276Z,11.15
2023-07-24T09:05:09.358Z,11.13
2023-07-24T09:07:39.436Z,10.82
2023-07-24T09:10:12.074Z,10.00
2023-07-24T09:12:43.517Z,9.30
2023-07-24T09:15:14.300Z,8.52
2023-07-24T09:17:53.161Z,9.90
2023-07-24T09:23:13.815Z,8.98
2023-07-24T09:25:46.434Z,8.05
2023-07-24T09:28:17.347Z,7.78
2023-07-24T09:30:57.040Z,7.07
2023-07-24T09:33:38.140Z,6.93
2023-07-24T09:36:09.835Z,8.60
2023-07-24T09:38:39.725Z,6.75
2023-07-24T09:41:10.097Z,7.80
2023-07-24T09:43:41.460Z,8.05
2023-07-24T09:46:12.086Z,8.18
2023-07-24T09:49:07.613Z,7.53
2023-07-24T09:51:34.862Z,7.97
2023-07-24T09:54:16.854Z,6.20
2023-07-24T09:56:51.900Z,8.15
2023-07-24T09:59:25.910Z,8.20
2023-07-24T10:01:56.358Z,9.48
2023-07-24T10:04:27.190Z,8.40
2023-07-24T10:06:57.233Z,7.22
2023-07-24T10:09:30.365Z,6.30
2023-07-24T10:12:00.436Z,7.35
2023-07-24T10:14:30.330Z,8.80
2023-07-24T10:16:59.423Z,6.22
2023-07-24T10:19:40.162Z,7.43
2023-07-24T10:22:09.387Z,6.10
2023-07-24T10:24:42.263Z,8.80
2023-07-24T10:27:11.901Z,6.40
2023-07-24T10:29:41.022Z,8.45
2023-07-24T10:32:20.481Z,8.15
2023-07-24T10:35:01.589Z,10.77
2023-07-24T10:37:38.800Z,8.70
2023-07-24T10:40:09.449Z,12.63
2023-07-24T10:42:38.147Z,10.48
2023-07-24T10:45:09.045Z,11.90
2023-07-24T10:47:38.391Z,7.63
2023-07-24T10:50:10.734Z,12.52
2023-07-24T10:52:39.590Z,8.43
2023-07-24T10:55:10.489Z,8.45
2023-07-24T10:57:39.415Z,9.15
2023-07-24T11:00:10.705Z,8.07
2023-07-24T11:02:39.546Z,9.25
2023-07-24T11:05:11.262Z,8.60
2023-07-24T11:07:40.385Z,8.77
2023-07-24T11:10:21.314Z,9.75
2023-07-24T11:12:51.943Z,7.85
2023-07-24T11:15:28.972Z,9.02
2023-07-24T11:17:57.964Z,9.15
2023-07-24T11:20:30.810Z,8.48
2023-07-24T11:23:00.890Z,8.13
2023-07-24T11:25:30.388Z,9.93
2023-07-24T11:27:59.316Z,8.95
2023-07-24T11:30:28.059Z,10.30
2023-07-24T11:33:00.371Z,7.68
2023-07-24T11:35:31.284Z,8.13
2023-07-24T11:38:00.110Z,8.88
2023-07-24T11:40:36.016Z,9.07
2023-07-24T11:43:05.734Z,9.68
2023-07-24T11:45:44.311Z,9.15
2023-07-24T11:48:14.442Z,9.05
2023-07-24T11:50:50.187Z,9.02
2023-07-24T11:53:24.565Z,8.13
2023-07-24T11:55:54.861Z,7.20
2023-07-24T11:58:24.259Z,7.90
2023-07-24T12:00:54.224Z,7.93
2023-07-24T12:03:23.952Z,9.23
2023-07-24T12:05:54.980Z,10.00
2023-07-24T12:08:33.342Z,8.82
2023-07-24T12:11:02.565Z,9.40
2023-07-24T12:13:33.675Z,8.68
2023-07-24T12:16:02.689Z,10.95
2023-07-24T12:18:31.902Z,8.73
2023-07-24T12:21:02.038Z,10.00
2023-07-24T12:23:30.717Z,12.45
2023-07-24T12:25:59.426Z,9.90
2023-07-24T12:28:28.245Z,13.25
2023-07-24T12:31:00.668Z,15.65
2023-07-24T12:33:29.633Z,12.05
2023-07-24T12:35:58.403Z,12.65
2023-07-24T12:38:28.644Z,11.35
2023-07-24T12:40:57.288Z,10.15
2023-07-24T12:43:26.024Z,11.43
2023-07-24T12:45:54.775Z,14.38
2023-07-24T12:48:23.695Z,13.15
2023-07-24T12:50:53.168Z,10.40
2023-07-24T12:53:22.125Z,12.38
2023-07-24T12:55:59.335Z,15.48
2023-07-24T12:58:28.178Z,13.60
2023-07-24T13:00:57.215Z,15.43
2023-07-24T13:03:26.681Z,12.95
2023-07-24T13:05:55.636Z,16.92
2023-07-24T13:08:27.225Z,16.45
2023-07-24T13:11:03.482Z,15.20
2023-07-24T13:13:32.933Z,10.38
2023-07-24T13:16:30.705Z,12.73
2023-07-24T13:19:02.866Z,11.43
2023-07-24T13:21:33.193Z,10.52
2023-07-24T13:24:50.401Z,9.32
2023-07-24T13:27:20.606Z,9.50
2023-07-24T13:29:49.558Z,8.80
2023-07-24T13:32:31.501Z,10.00
2023-07-24T13:35:03.714Z,11.20
2023-07-24T13:37:32.446Z,11.07
2023-07-24T13:40:01.118Z,10.13
2023-07-24T13:42:36.384Z,8.77
2023-07-24T13:45:32.527Z,8.52
2023-07-24T13:48:01.304Z,7.47
2023-07-24T13:50:30.192Z,9.43
2023-07-24T13:52:58.960Z,9.25
2023-07-24T13:55:31.906Z,6.50
2023-07-24T13:58:02.569Z,5.93
2023-07-24T14:00:33.071Z,6.60
2023-07-24T14:03:02.630Z,6.53
2023-07-24T14:05:34.023Z,6.00
2023-07-24T14:08:03.017Z,6.68
2023-07-24T14:10:32.210Z,6.10
2023-07-24T14:13:02.889Z,5.88
2023-07-24T14:15:32.325Z,4.95
2023-07-24T14:18:01.182Z,5.35
2023-07-24T14:20:30.174Z,5.07
2023-07-24T14:22:59.196Z,4.88
2023-07-24T14:25:31.090Z,5.90
2023-07-24T14:28:01.495Z,7.20
2023-07-24T14:30:30.548Z,5.63
2023-07-24T14:32:59.737Z,5.15
2023-07-24T14:35:34.575Z,6.32
2023-07-24T14:38:05.468Z,6.00
2023-07-24T14:40:35.440Z,6.75
2023-07-24T14:43:07.832Z,7.18
2023-07-24T14:45:37.309Z,6.65
2023-07-24T14:48:10.059Z,8.45
2023-07-24T14:50:45.103Z,6.22
2023-07-24T14:53:14.677Z,6.55
2023-07-24T14:55:46.039Z,9.02
2023-07-24T14:58:20.161Z,7.35
2023-07-24T15:01:15.880Z,7.07
2023-07-24T15:03:45.774Z,7.75
2023-07-24T15:06:14.530Z,7.55
2023-07-24T15:08:43.336Z,6.68
2023-07-24T15:11:12.792Z,6.20
2023-07-24T15:13:43.116Z,7.38
2023-07-24T15:16:11.923Z,7.35
2023-07-24T15:18:40.703Z,6.65
2023-07-24T15:21:10.269Z,7.32
2023-07-24T15:23:39.221Z,9.77
2023-07-24T15:26:08.142Z,9.00
2023-07-24T15:28:37.967Z,7.28
2023-07-24T15:31:11.736Z,8.13
2023-07-24T15:33:42.499Z,7.57
2023-07-24T15:36:13.693Z,8.95
2023-07-24T15:39:00.616Z,7.95
2023-07-24T15:41:30.126Z,7.78
2023-07-24T15:43:59.264Z,9.55
2023-07-24T15:46:33.172Z,8.15
2023-07-24T15:49:19.726Z,7.90
2023-07-24T15:51:50.331Z,9.20
2023-07-24T15:54:19.025Z,10.00
2023-07-24T15:56:48.109Z,9.25
2023-07-24T15:59:17.793Z,9.88
2023-07-24T16:01:49.139Z,9.05
2023-07-24T16:04:27.522Z,8.50
2023-07-24T16:06:57.210Z,9.80
2023-07-24T16:09:26.088Z,8.52
2023-07-24T16:11:54.921Z,8.60
2023-07-24T16:14:25.848Z,10.93
2023-07-24T16:16:56.513Z,10.48
2023-07-24T16:19:32.893Z,11.73
2023-07-24T16:22:55.397Z,10.85
2023-07-24T16:25:52.909Z,9.85
2023-07-24T16:28:22.013Z,9.75
2023-07-24T16:30:51.082Z,10.32
2023-07-24T16:33:24.348Z,10.43
2023-07-24T16:36:11.817Z,9.60
2023-07-24T16:38:41.156Z,9.93
2023-07-24T16:41:10.196Z,11.00
2023-07-24T16:43:40.456Z,10.82
2023-07-24T16:46:25.768Z,10.65
2023-07-24T16:48:57.384Z,10.82
2023-07-24T16:51:37.643Z,11.02
2023-07-24T16:54:06.590Z,12.98
2023-07-24T16:56:42.069Z,10.30
2023-07-24T16:59:11.246Z,9.82
2023-07-24T17:01:40.525Z,9.20
2023-07-24T17:04:11.108Z,9.63
2023-07-24T17:06:40.221Z,12.40
2023-07-24T17:09:09.233Z,11.35
2023-07-24T17:11:38.608Z,9.73
2023-07-24T17:14:08.755Z,9.65
2023-07-24T17:16:40.150Z,11.70
2023-07-24T17:19:12.117Z,11.45
2023-07-24T17:21:41.878Z,9.77
2023-07-24T17:24:12.789Z,8.43
2023-07-24T17:26:42.597Z,10.05
2023-07-24T17:29:11.760Z,10.00
2023-07-24T17:31:43.895Z,10.35
2023-07-24T17:34:14.095Z,11.52
2023-07-24T17:36:44.100Z,9.82
2023-07-24T17:39:12.844Z,9.15
2023-07-24T17:41:41.781Z,10.15
2023-07-24T17:44:10.531Z,13.38
2023-07-24T17:46:40.958Z,10.32
2023-07-24T17:49:09.819Z,9.70
2023-07-24T17:51:40.798Z,10.00
2023-07-24T17:54:09.825Z,12.65
2023-07-24T17:56:44.686Z,9.32
2023-07-24T17:59:14.685Z,11.93
2023-07-24T18:01:44.730Z,9.77
2023-07-24T18:04:15.814Z,11.02
2023-07-24T18:06:46.616Z,12.55
2023-07-24T18:09:21.444Z,10.30
2023-07-24T18:11:50.950Z,13.48
2023-07-24T18:14:21.728Z,9.52
2023-07-24T18:16:51.425Z,10.18
2023-07-24T18:19:21.834Z,10.05
2023-07-24T18:21:52.533Z,11.27
2023-07-24T18:24:22.010Z,10.23
2023-07-24T18:26:51.138Z,11.63
2023-07-24T18:29:20.485Z,11.50
2023-07-24T18:31:49.827Z,9.23
2023-07-24T18:34:20.593Z,10.23
2023-07-24T18:36:49.433Z,11.88
2023-07-24T18:39:19.722Z,9.82
2023-07-24T18:41:48.447Z,9.55
2023-07-24T18:44:18.115Z,9.70
2023-07-24T18:46:47.008Z,8.55
2023-07-24T18:49:15.943Z,10.85
2023-07-24T18:51:45.668Z,10.30
2023-07-24T18:54:15.773Z,9.52
2023-07-24T18:56:46.927Z,10.05
2023-07-24T18:59:17.489Z,9.05
2023-07-24T19:01:47.480Z,9.23
2023-07-24T19:04:16.477Z,6.88
2023-07-24T19:06:45.648Z,10.57
2023-07-24T19:09:14.843Z,9.05
2023-07-24T19:11:45.104Z,7.70
2023-07-24T19:14:14.086Z,11.25
2023-07-24T19:16:42.811Z,6.95
2023-07-24T19:19:12.627Z,6.05
2023-07-24T19:21:41.566Z,7.07
2023-07-24T19:24:23.033Z,10.40
2023-07-24T19:26:53.564Z,6.40
2023-07-24T19:29:22.282Z,7.05
2023-07-24T19:31:52.193Z,12.57
2023-07-24T19:34:21.214Z,5.15
2023-07-24T19:36:50.064Z,4.38
2023-07-24T19:39:18.991Z,9.50
2023-07-24T19:41:47.801Z,7.72
2023-07-24T19:44:18.720Z,5.38
2023-07-24T19:46:47.751Z,7.55
2023-07-24T19:49:16.631Z,4.72
2023-07-24T19:51:45.458Z,3.45
2023-07-24T19:54:14.268Z,7.82
2023-07-24T19:56:43.093Z,4.13
2023-07-24T19:59:11.949Z,4.75
2023-07-24T20:01:44.641Z,5.90
2023-07-24T20:04:14.930Z,4.00
2023-07-24T20:06:44.222Z,3.63
2023-07-24T20:09:14.026Z,5.03
2023-07-24T20:11:43.260Z,8.48
2023-07-24T20:14:12.445Z,3.42
2023-07-24T20:16:43.250Z,5.45
2023-07-24T20:19:12.496Z,6.55
2023-07-24T20:21:42.614Z,9.75
2023-07-24T20:24:13.979Z,3.38
2023-07-24T20:26:45.735Z,5.43
2023-07-24T20:29:15.559Z,4.63
2023-07-24T20:31:46.781Z,5.28
2023-07-24T20:34:16.342Z,6.05
2023-07-24T20:36:46.163Z,4.95
2023-07-24T20:39:18.537Z,5.40
2023-07-24T20:41:47.573Z,3.40
2023-07-24T20:44:16.679Z,4.25
2023-07-24T20:46:46.880Z,5.03
2023-07-24T20:49:15.657Z,5.15
2023-07-24T20:51:44.477Z,6.15
2023-07-24T20:54:13.734Z,5.13
2023-07-24T20:56:42.856Z,6.05
2023-07-24T20:59:11.620Z,5.43
2023-07-24T21:01:40.416Z,4.30
2023-07-24T21:04:10.583Z,7.15
2023-07-24T21:06:39.436Z,5.95
2023-07-24T21:09:08.177Z,6.55
2023-07-24T21:11:36.993Z,5.95
2023-07-24T21:14:05.926Z,4.50
2023-07-24T21:16:34.881Z,3.65
2023-07-24T21:19:03.849Z,4.03
2023-07-24T21:21:34.335Z,4.63
2023-07-24T21:24:03.138Z,6.03
2023-07-24T21:26:31.863Z,3.15
2023-07-24T21:29:00.710Z,5.88
2023-07-24T21:31:30.803Z,2.67
2023-07-24T21:34:00.816Z,3.65
2023-07-24T21:36:30.356Z,4.85
2023-07-24T21:39:02.949Z,4.00
2023-07-24T21:41:34.104Z,3.60
2023-07-24T21:44:04.743Z,4.63
2023-07-24T21:46:35.453Z,7.18
2023-07-24T21:49:08.932Z,3.70
2023-07-24T21:51:38.760Z,6.63
2023-07-24T21:54:10.365Z,4.60
2023-07-24T21:56:40.316Z,3.85
2023-07-24T21:59:10.909Z,3.80
2023-07-24T22:01:40.024Z,4.57
2023-07-24T22:04:11.507Z,3.05
2023-07-24T22:06:40.427Z,4.90
2023-07-24T22:09:10.989Z,5.22
2023-07-24T22:11:40.455Z,3.55
2023-07-24T22:14:09.722Z,5.03
2023-07-24T22:16:39.033Z,2.65
2023-07-24T22:19:08.223Z,5.20
2023-07-24T22:21:37.378Z,6.30
2023-07-24T22:24:07.282Z,6.03
2023-07-24T22:26:38.261Z,3.90
2023-07-24T22:29:07.621Z,3.95
2023-07-24T22:31:36.781Z,3.25
2023-07-24T22:34:05.905Z,5.70
2023-07-24T22:36:35.342Z,7.25
2023-07-24T22:39:07.536Z,3.45
2023-07-24T22:41:38.220Z,5.18
2023-07-24T22:44:08.769Z,5.45
2023-07-24T22:46:37.917Z,3.28
2023-07-24T22:49:07.151Z,4.43
2023-07-24T22:51:36.476Z,3.95
2023-07-24T22:54:06.312Z,3.78
2023-07-24T22:56:37.010Z,4.60
2023-07-24T22:59:22.680Z,4.75
2023-07-24T23:01:53.916Z,3.60
2023-07-24T23:04:25.578Z,4.38
2023-07-24T23:06:57.016Z,5.50
2023-07-24T23:09:26.755Z,3.10
2023-07-24T23:12:00.100Z,4.22
2023-07-24T23:14:31.749Z,3.47
2023-07-24T23:17:01.374Z,4.68
2023-07-24T23:19:30.884Z,3.20
2023-07-24T23:22:00.297Z,4.28
2023-07-24T23:24:29.882Z,3.30
2023-07-24T23:27:01.020Z,5.65
2023-07-24T23:29:30.471Z,5.28
2023-07-24T23:31:59.980Z,4.05
2023-07-24T23:34:31.473Z,4.72
2023-07-24T23:37:01.053Z,4.78
2023-07-24T23:39:30.415Z,4.10
2023-07-24T23:42:01.210Z,4.32
2023-07-24T23:44:30.916Z,3.05
2023-07-24T23:47:00.399Z,3.42
2023-07-24T23:49:29.640Z,4.82
2023-07-24T23:51:59.200Z,4.68
2023-07-24T23:54:28.429Z,3.25
2023-07-24T23:56:57.655Z,3.55
2023-07-24T23:59:27.909Z,3.92
